sensor_id;sensor_type;location;lat;lon;timestamp;temperature;humidity
31695;DHT22;18289;51.330;4.946;2024-03-06T00:00:41;7.20;99.90
31695;DHT22;18289;51.330;4.946;2024-03-06T00:03:07;7.10;99.90
31695;DHT22;18289;51.330;4.946;2024-03-06T00:05:33;7.10;99.90
31695;DHT22;18289;51.330;4.946;2024-03-06T00:07:58;7.00;99.90
31695;DHT22;18289;51.330;4.946;2024-03-06T00:10:26;7.00;99.90
31695;DHT22;18289;51.330;4.946;2024-03-06T00:12:51;7.00;99.90
31695;DHT22;18289;51.330;4.946;2024-03-06T00:15:17;7.10;99.90
31695;DHT22;18289;51.330;4.946;2024-03-06T00:17:43;7.00;99.90
31695;DHT22;18289;51.330;4.946;2024-03-06T00:20:08;6.90;99.90
31695;DHT22;18289;51.330;4.946;2024-03-06T00:22:36;6.90;99.90
31695;DHT22;18289;51.330;4.946;2024-03-06T00:25:01;6.80;99.90
31695;DHT22;18289;51.330;4.946;2024-03-06T00:27:28;6.80;99.90
31695;DHT22;18289;51.330;4.946;2024-03-06T00:29:54;6.70;99.90
31695;DHT22;18289;51.330;4.946;2024-03-06T00:32:19;6.70;99.90
31695;DHT22;18289;51.330;4.946;2024-03-06T00:34:45;6.60;99.90
31695;DHT22;18289;51.330;4.946;2024-03-06T00:37:11;6.60;99.90
31695;DHT22;18289;51.330;4.946;2024-03-06T00:39:36;6.50;99.90
31695;DHT22;18289;51.330;4.946;2024-03-06T00:42:02;6.50;99.90
31695;DHT22;18289;51.330;4.946;2024-03-06T00:44:28;6.50;99.90
31695;DHT22;18289;51.330;4.946;2024-03-06T00:46:54;6.40;99.90
31695;DHT22;18289;51.330;4.946;2024-03-06T00:49:20;6.40;99.90
31695;DHT22;18289;51.330;4.946;2024-03-06T00:51:45;6.30;99.90
31695;DHT22;18289;51.330;4.946;2024-03-06T00:54:11;6.30;99.90
31695;DHT22;18289;51.330;4.946;2024-03-06T00:56:38;6.20;99.90
31695;DHT22;18289;51.330;4.946;2024-03-06T00:59:04;6.20;99.90
31695;DHT22;18289;51.330;4.946;2024-03-06T01:01:30;6.10;99.90
31695;DHT22;18289;51.330;4.946;2024-03-06T01:03:56;6.10;99.90
31695;DHT22;18289;51.330;4.946;2024-03-06T01:06:21;6.10;99.90
31695;DHT22;18289;51.330;4.946;2024-03-06T01:08:47;6.10;99.90
31695;DHT22;18289;51.330;4.946;2024-03-06T01:11:13;6.00;99.90
31695;DHT22;18289;51.330;4.946;2024-03-06T01:13:41;6.00;99.90
31695;DHT22;18289;51.330;4.946;2024-03-06T01:16:07;5.90;99.90
31695;DHT22;18289;51.330;4.946;2024-03-06T01:18:33;5.80;99.90
31695;DHT22;18289;51.330;4.946;2024-03-06T01:20:59;5.80;99.90
31695;DHT22;18289;51.330;4.946;2024-03-06T01:25:52;5.70;99.90
31695;DHT22;18289;51.330;4.946;2024-03-06T01:28:18;5.70;99.90
31695;DHT22;18289;51.330;4.946;2024-03-06T01:30:44;5.70;99.90
31695;DHT22;18289;51.330;4.946;2024-03-06T01:33:10;5.70;99.90
31695;DHT22;18289;51.330;4.946;2024-03-06T01:35:35;5.70;99.90
31695;DHT22;18289;51.330;4.946;2024-03-06T01:38:01;5.70;99.90
31695;DHT22;18289;51.330;4.946;2024-03-06T01:40:27;5.60;99.90
31695;DHT22;18289;51.330;4.946;2024-03-06T01:42:54;5.50;99.90
31695;DHT22;18289;51.330;4.946;2024-03-06T01:45:20;5.50;99.90
31695;DHT22;18289;51.330;4.946;2024-03-06T01:47:46;5.50;99.90
31695;DHT22;18289;51.330;4.946;2024-03-06T01:50:12;5.40;99.90
31695;DHT22;18289;51.330;4.946;2024-03-06T01:52:39;5.30;99.90
31695;DHT22;18289;51.330;4.946;2024-03-06T01:55:07;5.30;99.90
31695;DHT22;18289;51.330;4.946;2024-03-06T01:57:34;5.20;99.90
31695;DHT22;18289;51.330;4.946;2024-03-06T02:00:00;5.30;99.90
31695;DHT22;18289;51.330;4.946;2024-03-06T02:02:27;5.20;99.90
31695;DHT22;18289;51.330;4.946;2024-03-06T02:04:53;5.20;99.90
31695;DHT22;18289;51.330;4.946;2024-03-06T02:07:20;5.20;99.90
31695;DHT22;18289;51.330;4.946;2024-03-06T02:09:47;5.10;99.90
31695;DHT22;18289;51.330;4.946;2024-03-06T02:12:14;5.10;99.90
31695;DHT22;18289;51.330;4.946;2024-03-06T02:14:40;5.10;99.90
31695;DHT22;18289;51.330;4.946;2024-03-06T02:17:06;5.00;99.90
31695;DHT22;18289;51.330;4.946;2024-03-06T02:19:39;5.00;99.90
31695;DHT22;18289;51.330;4.946;2024-03-06T02:22:06;5.00;99.90
31695;DHT22;18289;51.330;4.946;2024-03-06T02:24:32;5.00;99.90
31695;DHT22;18289;51.330;4.946;2024-03-06T02:26:57;5.00;99.90
31695;DHT22;18289;51.330;4.946;2024-03-06T02:29:24;4.90;99.90
31695;DHT22;18289;51.330;4.946;2024-03-06T02:31:49;4.90;99.90
31695;DHT22;18289;51.330;4.946;2024-03-06T02:34:15;4.80;99.90
31695;DHT22;18289;51.330;4.946;2024-03-06T02:36:41;4.80;99.90
31695;DHT22;18289;51.330;4.946;2024-03-06T02:39:07;4.80;99.90
31695;DHT22;18289;51.330;4.946;2024-03-06T02:41:35;4.80;99.90
31695;DHT22;18289;51.330;4.946;2024-03-06T02:44:02;4.80;99.90
31695;DHT22;18289;51.330;4.946;2024-03-06T02:46:28;4.80;99.90
31695;DHT22;18289;51.330;4.946;2024-03-06T02:48:54;4.80;99.90
31695;DHT22;18289;51.330;4.946;2024-03-06T02:51:20;4.70;99.90
31695;DHT22;18289;51.330;4.946;2024-03-06T02:53:46;4.70;99.90
31695;DHT22;18289;51.330;4.946;2024-03-06T02:56:20;4.60;99.90
31695;DHT22;18289;51.330;4.946;2024-03-06T02:58:46;4.60;99.90
31695;DHT22;18289;51.330;4.946;2024-03-06T03:01:11;4.50;99.90
31695;DHT22;18289;51.330;4.946;2024-03-06T03:03:42;4.50;99.90
31695;DHT22;18289;51.330;4.946;2024-03-06T03:06:08;4.50;99.90
31695;DHT22;18289;51.330;4.946;2024-03-06T03:08:34;4.50;99.90
31695;DHT22;18289;51.330;4.946;2024-03-06T03:11:00;4.50;99.90
31695;DHT22;18289;51.330;4.946;2024-03-06T03:13:26;4.40;99.90
31695;DHT22;18289;51.330;4.946;2024-03-06T03:15:51;4.40;99.90
31695;DHT22;18289;51.330;4.946;2024-03-06T03:18:17;4.40;99.90
31695;DHT22;18289;51.330;4.946;2024-03-06T03:20:43;4.40;99.90
31695;DHT22;18289;51.330;4.946;2024-03-06T03:23:09;4.40;99.90
31695;DHT22;18289;51.330;4.946;2024-03-06T03:25:37;4.40;99.90
31695;DHT22;18289;51.330;4.946;2024-03-06T03:28:04;4.40;99.90
31695;DHT22;18289;51.330;4.946;2024-03-06T03:30:30;4.40;99.90
31695;DHT22;18289;51.330;4.946;2024-03-06T03:32:57;4.30;99.90
31695;DHT22;18289;51.330;4.946;2024-03-06T03:35:23;4.30;99.90
31695;DHT22;18289;51.330;4.946;2024-03-06T03:37:53;4.30;99.90
31695;DHT22;18289;51.330;4.946;2024-03-06T03:40:21;4.30;99.90
31695;DHT22;18289;51.330;4.946;2024-03-06T03:42:47;4.30;99.90
31695;DHT22;18289;51.330;4.946;2024-03-06T03:45:13;4.30;99.90
31695;DHT22;18289;51.330;4.946;2024-03-06T03:47:39;4.40;99.90
31695;DHT22;18289;51.330;4.946;2024-03-06T03:50:05;4.40;99.90
31695;DHT22;18289;51.330;4.946;2024-03-06T03:52:31;4.30;99.90
31695;DHT22;18289;51.330;4.946;2024-03-06T03:54:57;4.30;99.90
31695;DHT22;18289;51.330;4.946;2024-03-06T03:57:22;4.30;99.90
31695;DHT22;18289;51.330;4.946;2024-03-06T03:59:48;4.30;99.90
31695;DHT22;18289;51.330;4.946;2024-03-06T04:02:14;4.30;99.90
31695;DHT22;18289;51.330;4.946;2024-03-06T04:04:39;4.20;99.90
31695;DHT22;18289;51.330;4.946;2024-03-06T04:07:05;4.10;99.90
31695;DHT22;18289;51.330;4.946;2024-03-06T04:09:32;4.10;99.90
31695;DHT22;18289;51.330;4.946;2024-03-06T04:12:02;4.10;99.90
31695;DHT22;18289;51.330;4.946;2024-03-06T04:14:29;4.10;99.90
31695;DHT22;18289;51.330;4.946;2024-03-06T04:16:56;4.10;99.90
31695;DHT22;18289;51.330;4.946;2024-03-06T04:19:21;4.20;99.90
31695;DHT22;18289;51.330;4.946;2024-03-06T04:21:47;4.20;99.90
31695;DHT22;18289;51.330;4.946;2024-03-06T04:24:13;4.20;99.90
31695;DHT22;18289;51.330;4.946;2024-03-06T04:26:38;4.10;99.90
31695;DHT22;18289;51.330;4.946;2024-03-06T04:29:04;4.10;99.90
31695;DHT22;18289;51.330;4.946;2024-03-06T04:31:30;4.10;99.90
31695;DHT22;18289;51.330;4.946;2024-03-06T04:33:55;4.10;99.90
31695;DHT22;18289;51.330;4.946;2024-03-06T04:36:21;4.10;99.90
31695;DHT22;18289;51.330;4.946;2024-03-06T04:38:47;4.10;99.90
31695;DHT22;18289;51.330;4.946;2024-03-06T04:41:12;4.10;99.90
31695;DHT22;18289;51.330;4.946;2024-03-06T04:43:38;4.10;99.90
31695;DHT22;18289;51.330;4.946;2024-03-06T04:46:04;4.00;99.90
31695;DHT22;18289;51.330;4.946;2024-03-06T04:48:30;4.00;99.90
31695;DHT22;18289;51.330;4.946;2024-03-06T04:50:55;3.90;99.90
31695;DHT22;18289;51.330;4.946;2024-03-06T04:53:21;3.90;99.90
31695;DHT22;18289;51.330;4.946;2024-03-06T04:55:47;3.80;99.90
31695;DHT22;18289;51.330;4.946;2024-03-06T04:58:13;3.80;99.90
31695;DHT22;18289;51.330;4.946;2024-03-06T05:00:39;3.70;99.90
31695;DHT22;18289;51.330;4.946;2024-03-06T05:03:05;3.70;99.90
31695;DHT22;18289;51.330;4.946;2024-03-06T05:05:30;3.70;99.90
31695;DHT22;18289;51.330;4.946;2024-03-06T05:07:57;3.70;99.90
31695;DHT22;18289;51.330;4.946;2024-03-06T05:10:23;3.60;99.90
31695;DHT22;18289;51.330;4.946;2024-03-06T05:12:49;3.60;99.90
31695;DHT22;18289;51.330;4.946;2024-03-06T05:15:16;3.60;99.90
31695;DHT22;18289;51.330;4.946;2024-03-06T05:17:42;3.60;99.90
31695;DHT22;18289;51.330;4.946;2024-03-06T05:20:09;3.60;99.90
31695;DHT22;18289;51.330;4.946;2024-03-06T05:22:35;3.60;99.90
31695;DHT22;18289;51.330;4.946;2024-03-06T05:25:00;3.60;99.90
31695;DHT22;18289;51.330;4.946;2024-03-06T05:27:26;3.70;99.90
31695;DHT22;18289;51.330;4.946;2024-03-06T05:29:52;3.70;99.90
31695;DHT22;18289;51.330;4.946;2024-03-06T05:32:18;3.70;99.90
31695;DHT22;18289;51.330;4.946;2024-03-06T05:34:44;3.70;99.90
31695;DHT22;18289;51.330;4.946;2024-03-06T05:37:10;3.70;99.90
31695;DHT22;18289;51.330;4.946;2024-03-06T05:39:36;3.60;99.90
31695;DHT22;18289;51.330;4.946;2024-03-06T05:42:03;3.60;99.90
31695;DHT22;18289;51.330;4.946;2024-03-06T05:44:33;3.60;99.90
31695;DHT22;18289;51.330;4.946;2024-03-06T05:47:00;3.60;99.90
31695;DHT22;18289;51.330;4.946;2024-03-06T05:49:26;3.50;99.90
31695;DHT22;18289;51.330;4.946;2024-03-06T05:51:52;3.50;99.90
31695;DHT22;18289;51.330;4.946;2024-03-06T05:54:20;3.50;99.90
31695;DHT22;18289;51.330;4.946;2024-03-06T05:56:48;3.60;99.90
31695;DHT22;18289;51.330;4.946;2024-03-06T05:59:14;3.50;99.90
31695;DHT22;18289;51.330;4.946;2024-03-06T06:01:40;3.50;99.90
31695;DHT22;18289;51.330;4.946;2024-03-06T06:04:08;3.50;99.90
31695;DHT22;18289;51.330;4.946;2024-03-06T06:06:35;3.60;99.90
31695;DHT22;18289;51.330;4.946;2024-03-06T06:09:00;3.70;99.90
31695;DHT22;18289;51.330;4.946;2024-03-06T06:11:26;3.80;99.90
31695;DHT22;18289;51.330;4.946;2024-03-06T06:13:52;3.70;99.90
31695;DHT22;18289;51.330;4.946;2024-03-06T06:16:17;3.70;99.90
31695;DHT22;18289;51.330;4.946;2024-03-06T06:18:43;3.70;99.90
31695;DHT22;18289;51.330;4.946;2024-03-06T06:21:09;3.70;99.90
31695;DHT22;18289;51.330;4.946;2024-03-06T06:23:35;3.70;99.90
31695;DHT22;18289;51.330;4.946;2024-03-06T06:26:00;3.70;99.90
31695;DHT22;18289;51.330;4.946;2024-03-06T06:28:26;3.70;99.90
31695;DHT22;18289;51.330;4.946;2024-03-06T06:30:52;3.70;99.90
31695;DHT22;18289;51.330;4.946;2024-03-06T06:33:21;3.70;99.90
31695;DHT22;18289;51.330;4.946;2024-03-06T06:35:47;3.70;99.90
31695;DHT22;18289;51.330;4.946;2024-03-06T06:38:13;3.80;99.90
31695;DHT22;18289;51.330;4.946;2024-03-06T06:40:38;3.80;99.90
31695;DHT22;18289;51.330;4.946;2024-03-06T06:43:06;3.80;99.90
31695;DHT22;18289;51.330;4.946;2024-03-06T06:45:31;3.90;99.90
31695;DHT22;18289;51.330;4.946;2024-03-06T06:47:57;4.00;99.90
31695;DHT22;18289;51.330;4.946;2024-03-06T06:50:23;4.00;99.90
31695;DHT22;18289;51.330;4.946;2024-03-06T06:52:51;4.00;99.90
31695;DHT22;18289;51.330;4.946;2024-03-06T06:55:17;4.10;99.90
31695;DHT22;18289;51.330;4.946;2024-03-06T06:57:43;4.10;99.90
31695;DHT22;18289;51.330;4.946;2024-03-06T07:00:10;4.20;99.90
31695;DHT22;18289;51.330;4.946;2024-03-06T07:02:41;4.20;99.90
31695;DHT22;18289;51.330;4.946;2024-03-06T07:05:08;4.30;99.90
31695;DHT22;18289;51.330;4.946;2024-03-06T07:07:34;4.30;99.90
31695;DHT22;18289;51.330;4.946;2024-03-06T07:10:01;4.30;99.90
31695;DHT22;18289;51.330;4.946;2024-03-06T07:12:26;4.40;99.90
31695;DHT22;18289;51.330;4.946;2024-03-06T07:14:52;4.50;99.90
31695;DHT22;18289;51.330;4.946;2024-03-06T07:17:18;4.70;99.90
31695;DHT22;18289;51.330;4.946;2024-03-06T07:19:44;4.80;99.90
31695;DHT22;18289;51.330;4.946;2024-03-06T07:22:09;4.90;99.90
31695;DHT22;18289;51.330;4.946;2024-03-06T07:24:35;5.00;99.90
31695;DHT22;18289;51.330;4.946;2024-03-06T07:27:02;5.10;99.90
31695;DHT22;18289;51.330;4.946;2024-03-06T07:29:28;5.10;99.90
31695;DHT22;18289;51.330;4.946;2024-03-06T07:31:54;5.20;99.90
31695;DHT22;18289;51.330;4.946;2024-03-06T07:34:20;5.30;99.90
31695;DHT22;18289;51.330;4.946;2024-03-06T07:36:49;5.50;99.90
31695;DHT22;18289;51.330;4.946;2024-03-06T07:39:19;5.70;99.90
31695;DHT22;18289;51.330;4.946;2024-03-06T07:41:45;6.20;99.90
31695;DHT22;18289;51.330;4.946;2024-03-06T07:44:11;6.50;99.90
31695;DHT22;18289;51.330;4.946;2024-03-06T07:46:37;6.70;99.90
31695;DHT22;18289;51.330;4.946;2024-03-06T07:49:03;7.00;99.90
31695;DHT22;18289;51.330;4.946;2024-03-06T07:51:33;7.20;99.90
31695;DHT22;18289;51.330;4.946;2024-03-06T07:53:58;7.30;99.90
31695;DHT22;18289;51.330;4.946;2024-03-06T07:56:25;7.40;99.90
31695;DHT22;18289;51.330;4.946;2024-03-06T07:58:51;7.60;99.90
31695;DHT22;18289;51.330;4.946;2024-03-06T08:01:17;7.90;99.90
31695;DHT22;18289;51.330;4.946;2024-03-06T08:03:43;8.00;99.90
31695;DHT22;18289;51.330;4.946;2024-03-06T08:06:10;8.00;99.90
31695;DHT22;18289;51.330;4.946;2024-03-06T08:08:36;8.00;99.90
31695;DHT22;18289;51.330;4.946;2024-03-06T08:11:02;8.00;99.90
31695;DHT22;18289;51.330;4.946;2024-03-06T08:13:28;8.00;99.90
31695;DHT22;18289;51.330;4.946;2024-03-06T08:15:54;8.00;99.90
31695;DHT22;18289;51.330;4.946;2024-03-06T08:18:20;8.10;99.90
31695;DHT22;18289;51.330;4.946;2024-03-06T08:20:46;8.10;99.90
31695;DHT22;18289;51.330;4.946;2024-03-06T08:23:11;8.00;99.90
31695;DHT22;18289;51.330;4.946;2024-03-06T08:25:37;8.20;99.90
31695;DHT22;18289;51.330;4.946;2024-03-06T08:28:03;8.30;99.90
31695;DHT22;18289;51.330;4.946;2024-03-06T08:30:31;8.60;99.90
31695;DHT22;18289;51.330;4.946;2024-03-06T08:32:57;8.80;99.90
31695;DHT22;18289;51.330;4.946;2024-03-06T08:35:23;9.10;99.90
31695;DHT22;18289;51.330;4.946;2024-03-06T08:37:50;9.40;99.90
31695;DHT22;18289;51.330;4.946;2024-03-06T08:40:19;9.80;99.90
31695;DHT22;18289;51.330;4.946;2024-03-06T08:42:46;10.20;99.90
31695;DHT22;18289;51.330;4.946;2024-03-06T08:45:18;10.70;99.90
31695;DHT22;18289;51.330;4.946;2024-03-06T08:47:44;10.90;99.90
31695;DHT22;18289;51.330;4.946;2024-03-06T08:50:11;11.10;99.90
31695;DHT22;18289;51.330;4.946;2024-03-06T08:52:37;11.40;99.90
31695;DHT22;18289;51.330;4.946;2024-03-06T08:55:03;11.50;99.90
31695;DHT22;18289;51.330;4.946;2024-03-06T08:57:33;11.90;99.90
31695;DHT22;18289;51.330;4.946;2024-03-06T08:59:59;12.40;99.90
31695;DHT22;18289;51.330;4.946;2024-03-06T09:02:25;12.70;99.90
31695;DHT22;18289;51.330;4.946;2024-03-06T09:04:51;12.80;99.90
31695;DHT22;18289;51.330;4.946;2024-03-06T09:07:18;13.20;99.90
31695;DHT22;18289;51.330;4.946;2024-03-06T09:09:43;13.20;99.90
31695;DHT22;18289;51.330;4.946;2024-03-06T09:12:10;13.40;99.90
31695;DHT22;18289;51.330;4.946;2024-03-06T09:14:39;13.80;99.90
31695;DHT22;18289;51.330;4.946;2024-03-06T09:17:06;14.30;99.90
31695;DHT22;18289;51.330;4.946;2024-03-06T09:19:35;14.60;99.90
31695;DHT22;18289;51.330;4.946;2024-03-06T09:22:01;14.80;99.90
31695;DHT22;18289;51.330;4.946;2024-03-06T09:24:28;14.70;99.90
31695;DHT22;18289;51.330;4.946;2024-03-06T09:26:54;14.60;99.90
31695;DHT22;18289;51.330;4.946;2024-03-06T09:29:20;14.80;99.90
31695;DHT22;18289;51.330;4.946;2024-03-06T09:31:47;15.40;99.90
31695;DHT22;18289;51.330;4.946;2024-03-06T09:34:16;15.70;99.90
31695;DHT22;18289;51.330;4.946;2024-03-06T09:36:46;15.80;99.90
31695;DHT22;18289;51.330;4.946;2024-03-06T09:39:17;15.70;99.90
31695;DHT22;18289;51.330;4.946;2024-03-06T09:41:46;15.80;99.90
31695;DHT22;18289;51.330;4.946;2024-03-06T09:44:13;15.90;99.90
31695;DHT22;18289;51.330;4.946;2024-03-06T09:46:43;16.10;99.90
31695;DHT22;18289;51.330;4.946;2024-03-06T09:49:17;16.10;99.90
31695;DHT22;18289;51.330;4.946;2024-03-06T09:51:47;16.40;99.90
31695;DHT22;18289;51.330;4.946;2024-03-06T09:54:16;16.30;99.90
31695;DHT22;18289;51.330;4.946;2024-03-06T09:56:48;16.30;99.90
31695;DHT22;18289;51.330;4.946;2024-03-06T09:59:14;16.50;99.90
31695;DHT22;18289;51.330;4.946;2024-03-06T10:01:53;16.90;99.90
31695;DHT22;18289;51.330;4.946;2024-03-06T10:04:26;16.80;99.90
31695;DHT22;18289;51.330;4.946;2024-03-06T10:06:59;16.70;99.90
31695;DHT22;18289;51.330;4.946;2024-03-06T10:11:53;16.00;99.90
31695;DHT22;18289;51.330;4.946;2024-03-06T10:14:21;15.50;99.90
31695;DHT22;18289;51.330;4.946;2024-03-06T10:16:54;15.40;99.90
31695;DHT22;18289;51.330;4.946;2024-03-06T10:19:22;15.50;99.90
31695;DHT22;18289;51.330;4.946;2024-03-06T10:21:48;16.20;99.90
31695;DHT22;18289;51.330;4.946;2024-03-06T10:24:21;16.90;99.90
31695;DHT22;18289;51.330;4.946;2024-03-06T10:26:50;17.50;99.90
31695;DHT22;18289;51.330;4.946;2024-03-06T10:29:17;17.80;99.90
31695;DHT22;18289;51.330;4.946;2024-03-06T10:31:51;17.80;99.90
31695;DHT22;18289;51.330;4.946;2024-03-06T10:34:17;17.50;99.90
31695;DHT22;18289;51.330;4.946;2024-03-06T10:36:43;17.10;99.90
31695;DHT22;18289;51.330;4.946;2024-03-06T10:39:12;16.80;99.90
31695;DHT22;18289;51.330;4.946;2024-03-06T10:41:42;16.60;99.90
31695;DHT22;18289;51.330;4.946;2024-03-06T10:44:11;16.70;99.90
31695;DHT22;18289;51.330;4.946;2024-03-06T10:46:41;17.50;99.90
31695;DHT22;18289;51.330;4.946;2024-03-06T10:49:10;18.10;99.90
31695;DHT22;18289;51.330;4.946;2024-03-06T10:51:41;18.40;99.90
31695;DHT22;18289;51.330;4.946;2024-03-06T10:54:10;19.40;99.90
31695;DHT22;18289;51.330;4.946;2024-03-06T10:56:40;19.90;99.90
31695;DHT22;18289;51.330;4.946;2024-03-06T10:59:14;19.10;99.90
31695;DHT22;18289;51.330;4.946;2024-03-06T11:01:42;18.00;99.90
31695;DHT22;18289;51.330;4.946;2024-03-06T11:04:10;17.30;99.90
31695;DHT22;18289;51.330;4.946;2024-03-06T11:06:37;16.90;99.90
31695;DHT22;18289;51.330;4.946;2024-03-06T11:09:03;18.10;99.90
31695;DHT22;18289;51.330;4.946;2024-03-06T11:11:29;18.90;99.90
31695;DHT22;18289;51.330;4.946;2024-03-06T11:14:04;18.50;99.90
31695;DHT22;18289;51.330;4.946;2024-03-06T11:16:31;17.60;99.90
31695;DHT22;18289;51.330;4.946;2024-03-06T11:19:08;16.70;99.90
31695;DHT22;18289;51.330;4.946;2024-03-06T11:21:35;16.10;99.90
31695;DHT22;18289;51.330;4.946;2024-03-06T11:24:18;16.30;99.90
31695;DHT22;18289;51.330;4.946;2024-03-06T11:26:55;16.20;99.90
31695;DHT22;18289;51.330;4.946;2024-03-06T11:29:23;16.00;99.90
31695;DHT22;18289;51.330;4.946;2024-03-06T11:32:00;15.40;99.90
31695;DHT22;18289;51.330;4.946;2024-03-06T11:34:26;15.10;99.90
31695;DHT22;18289;51.330;4.946;2024-03-06T11:36:59;15.40;99.90
31695;DHT22;18289;51.330;4.946;2024-03-06T11:39:28;17.30;99.90
31695;DHT22;18289;51.330;4.946;2024-03-06T11:41:55;19.50;99.90
31695;DHT22;18289;51.330;4.946;2024-03-06T11:44:22;21.70;99.90
31695;DHT22;18289;51.330;4.946;2024-03-06T11:46:58;21.50;99.90
31695;DHT22;18289;51.330;4.946;2024-03-06T11:49:29;20.60;99.90
31695;DHT22;18289;51.330;4.946;2024-03-06T11:52:01;19.90;99.90
31695;DHT22;18289;51.330;4.946;2024-03-06T11:54:29;20.50;99.90
31695;DHT22;18289;51.330;4.946;2024-03-06T11:56:57;21.20;99.90
31695;DHT22;18289;51.330;4.946;2024-03-06T11:59:30;21.60;99.90
31695;DHT22;18289;51.330;4.946;2024-03-06T12:01:58;21.50;99.90
31695;DHT22;18289;51.330;4.946;2024-03-06T12:04:33;20.80;99.90
31695;DHT22;18289;51.330;4.946;2024-03-06T12:07:01;21.30;99.90
31695;DHT22;18289;51.330;4.946;2024-03-06T12:09:34;23.10;99.90
31695;DHT22;18289;51.330;4.946;2024-03-06T12:11:59;23.80;99.90
31695;DHT22;18289;51.330;4.946;2024-03-06T12:14:25;23.70;99.90
31695;DHT22;18289;51.330;4.946;2024-03-06T12:17:01;22.10;99.90
31695;DHT22;18289;51.330;4.946;2024-03-06T12:19:36;20.90;99.90
31695;DHT22;18289;51.330;4.946;2024-03-06T12:22:03;20.10;99.90
31695;DHT22;18289;51.330;4.946;2024-03-06T12:24:32;19.30;99.90
31695;DHT22;18289;51.330;4.946;2024-03-06T12:27:00;19.80;99.90
31695;DHT22;18289;51.330;4.946;2024-03-06T12:29:31;20.30;99.90
31695;DHT22;18289;51.330;4.946;2024-03-06T12:31:58;20.70;99.90
31695;DHT22;18289;51.330;4.946;2024-03-06T12:34:24;21.80;99.90
31695;DHT22;18289;51.330;4.946;2024-03-06T12:36:50;23.10;99.90
31695;DHT22;18289;51.330;4.946;2024-03-06T12:39:17;24.70;99.90
31695;DHT22;18289;51.330;4.946;2024-03-06T12:41:52;24.60;93.50
31695;DHT22;18289;51.330;4.946;2024-03-06T12:44:19;23.40;92.80
31695;DHT22;18289;51.330;4.946;2024-03-06T12:46:48;21.70;92.70
31695;DHT22;18289;51.330;4.946;2024-03-06T12:49:15;21.20;95.40
31695;DHT22;18289;51.330;4.946;2024-03-06T12:51:40;20.90;94.90
31695;DHT22;18289;51.330;4.946;2024-03-06T12:54:06;21.70;97.20
31695;DHT22;18289;51.330;4.946;2024-03-06T12:56:34;22.90;94.70
31695;DHT22;18289;51.330;4.946;2024-03-06T12:58:59;23.80;93.80
31695;DHT22;18289;51.330;4.946;2024-03-06T13:01:25;24.50;94.10
31695;DHT22;18289;51.330;4.946;2024-03-06T13:03:50;23.50;93.60
31695;DHT22;18289;51.330;4.946;2024-03-06T13:06:16;21.90;94.10
31695;DHT22;18289;51.330;4.946;2024-03-06T13:08:42;21.00;98.00
31695;DHT22;18289;51.330;4.946;2024-03-06T13:11:08;21.40;96.90
31695;DHT22;18289;51.330;4.946;2024-03-06T13:13:35;22.30;93.90
31695;DHT22;18289;51.330;4.946;2024-03-06T13:16:01;24.50;94.30
31695;DHT22;18289;51.330;4.946;2024-03-06T13:18:26;25.40;93.10
31695;DHT22;18289;51.330;4.946;2024-03-06T13:20:52;26.60;91.20
31695;DHT22;18289;51.330;4.946;2024-03-06T13:23:18;26.50;90.40
31695;DHT22;18289;51.330;4.946;2024-03-06T13:25:44;26.90;83.50
31695;DHT22;18289;51.330;4.946;2024-03-06T13:28:11;27.50;84.20
31695;DHT22;18289;51.330;4.946;2024-03-06T13:30:37;27.70;81.10
31695;DHT22;18289;51.330;4.946;2024-03-06T13:33:05;27.90;77.50
31695;DHT22;18289;51.330;4.946;2024-03-06T13:35:31;28.10;77.00
31695;DHT22;18289;51.330;4.946;2024-03-06T13:37:57;27.50;75.30
31695;DHT22;18289;51.330;4.946;2024-03-06T13:40:23;26.70;77.60
31695;DHT22;18289;51.330;4.946;2024-03-06T13:42:48;26.50;80.70
31695;DHT22;18289;51.330;4.946;2024-03-06T13:45:14;27.60;78.90
31695;DHT22;18289;51.330;4.946;2024-03-06T13:47:41;27.20;79.10
31695;DHT22;18289;51.330;4.946;2024-03-06T13:50:09;27.50;75.30
31695;DHT22;18289;51.330;4.946;2024-03-06T13:52:35;28.10;73.30
31695;DHT22;18289;51.330;4.946;2024-03-06T13:55:01;27.80;77.10
31695;DHT22;18289;51.330;4.946;2024-03-06T13:57:34;27.60;73.50
31695;DHT22;18289;51.330;4.946;2024-03-06T14:00:04;28.10;75.30
31695;DHT22;18289;51.330;4.946;2024-03-06T14:02:43;28.50;72.10
31695;DHT22;18289;51.330;4.946;2024-03-06T14:05:11;27.70;65.00
31695;DHT22;18289;51.330;4.946;2024-03-06T14:07:38;26.80;68.60
31695;DHT22;18289;51.330;4.946;2024-03-06T14:10:04;27.00;64.80
31695;DHT22;18289;51.330;4.946;2024-03-06T14:12:30;27.10;64.20
31695;DHT22;18289;51.330;4.946;2024-03-06T14:14:56;27.60;60.50
31695;DHT22;18289;51.330;4.946;2024-03-06T14:17:21;27.60;63.70
31695;DHT22;18289;51.330;4.946;2024-03-06T14:19:47;27.30;69.20
31695;DHT22;18289;51.330;4.946;2024-03-06T14:22:13;27.00;63.90
31695;DHT22;18289;51.330;4.946;2024-03-06T14:24:38;26.60;65.90
31695;DHT22;18289;51.330;4.946;2024-03-06T14:27:04;26.30;65.90
31695;DHT22;18289;51.330;4.946;2024-03-06T14:29:31;26.30;63.80
31695;DHT22;18289;51.330;4.946;2024-03-06T14:31:56;26.80;63.80
31695;DHT22;18289;51.330;4.946;2024-03-06T14:34:22;27.00;63.30
31695;DHT22;18289;51.330;4.946;2024-03-06T14:36:50;27.10;62.30
31695;DHT22;18289;51.330;4.946;2024-03-06T14:39:16;27.60;60.50
31695;DHT22;18289;51.330;4.946;2024-03-06T14:41:41;26.50;60.00
31695;DHT22;18289;51.330;4.946;2024-03-06T14:44:08;25.60;60.60
31695;DHT22;18289;51.330;4.946;2024-03-06T14:46:34;24.90;61.90
31695;DHT22;18289;51.330;4.946;2024-03-06T14:49:00;24.60;61.10
31695;DHT22;18289;51.330;4.946;2024-03-06T14:51:28;24.60;65.00
31695;DHT22;18289;51.330;4.946;2024-03-06T14:53:54;24.10;66.10
31695;DHT22;18289;51.330;4.946;2024-03-06T14:56:19;24.10;67.50
31695;DHT22;18289;51.330;4.946;2024-03-06T14:58:47;24.70;67.50
31695;DHT22;18289;51.330;4.946;2024-03-06T15:01:13;24.60;63.20
31695;DHT22;18289;51.330;4.946;2024-03-06T15:03:39;24.90;62.90
31695;DHT22;18289;51.330;4.946;2024-03-06T15:06:05;24.50;62.60
31695;DHT22;18289;51.330;4.946;2024-03-06T15:08:33;23.70;67.70
31695;DHT22;18289;51.330;4.946;2024-03-06T15:11:00;24.60;68.60
31695;DHT22;18289;51.330;4.946;2024-03-06T15:13:26;25.50;63.00
31695;DHT22;18289;51.330;4.946;2024-03-06T15:15:51;26.00;65.00
31695;DHT22;18289;51.330;4.946;2024-03-06T15:18:17;26.60;63.60
31695;DHT22;18289;51.330;4.946;2024-03-06T15:20:43;26.30;62.20
31695;DHT22;18289;51.330;4.946;2024-03-06T15:23:10;26.20;60.00
31695;DHT22;18289;51.330;4.946;2024-03-06T15:25:35;26.20;64.70
31695;DHT22;18289;51.330;4.946;2024-03-06T15:28:01;25.10;66.20
31695;DHT22;18289;51.330;4.946;2024-03-06T15:30:28;26.00;62.70
31695;DHT22;18289;51.330;4.946;2024-03-06T15:32:56;26.30;62.50
31695;DHT22;18289;51.330;4.946;2024-03-06T15:35:22;26.60;57.80
31695;DHT22;18289;51.330;4.946;2024-03-06T15:40:16;24.80;62.50
31695;DHT22;18289;51.330;4.946;2024-03-06T15:42:42;24.30;61.70
31695;DHT22;18289;51.330;4.946;2024-03-06T15:45:10;24.40;65.20